Time;durP1;ratioP1;P1;durP2;ratioP2;P2;SDS_P1;SDS_P2;PMS_P1;PMS_P2;Temp;Humidity;BMP_temperature;BMP_pressure;BME280_temperature;BME280_humidity;BME280_pressure;Samples;Min_cycle;Max_cycle;Signal;HPM_P1;HPM_P2
2023/09/23 00:01:15;;;;;;;8.82;5.15;;;;;;;-0.31;100.00;98282.03;4953608;28;20480;-69
2023/09/23 00:03:43;;;;;;;11.27;3.95;;;;;;;-0.08;100.00;98335.94;4953850;28;20102;-71
2023/09/23 00:06:10;;;;;;;5.68;3.88;;;;;;;-0.35;100.00;98291.22;4953360;28;20058;-68
2023/09/23 00:08:37;;;;;;;7.55;4.60;;;;;;;-0.25;100.00;98308.59;4953444;28;20047;-69
2023/09/23 00:11:04;;;;;;;7.93;3.78;;;;;;;0.01;100.00;98357.91;4953814;28;20419;-69
2023/09/23 00:13:32;;;;;;;8.75;3.17;;;;;;;0.01;100.00;98366.66;4953466;28;20063;-70
2023/09/23 00:15:59;;;;;;;5.43;3.22;;;;;;;0.00;100.00;98375.53;4953459;28;20062;-69
2023/09/23 00:18:26;;;;;;;4.03;2.80;;;;;;;0.12;100.00;98391.13;4948359;28;20043;-69
2023/09/23 00:20:54;;;;;;;5.65;3.35;;;;;;;0.33;100.00;98439.16;4933827;29;20471;-69
2023/09/23 00:23:21;;;;;;;4.68;2.97;;;;;;;0.24;100.00;98440.03;4933470;29;20051;-70
2023/09/23 00:25:49;;;;;;;6.40;3.05;;;;;;;0.32;100.00;98457.75;4933851;29;20048;-69
2023/09/23 00:28:15;;;;;;;7.35;3.05;;;;;;;0.39;100.00;98456.97;4933767;29;20060;-70
2023/09/23 00:30:45;;;;;;;5.28;2.75;;;;;;;1.12;100.00;98567.66;4933796;29;20118;-69
2023/09/23 00:33:16;;;;;;;6.68;2.90;;;;;;;1.23;100.00;98593.03;4933781;29;20058;-69
2023/09/23 00:35:44;;;;;;;5.03;2.97;;;;;;;1.58;100.00;98652.09;4933770;29;20051;-68
2023/09/23 00:38:12;;;;;;;9.57;2.95;;;;;;;1.62;100.00;98653.44;4933642;29;20067;-69
2023/09/23 00:40:39;;;;;;;10.10;3.05;;;;;;;1.49;100.00;98633.50;4933500;29;20447;-68
2023/09/23 00:43:07;;;;;;;8.65;2.90;;;;;;;1.86;100.00;98689.78;4933568;29;20059;-69
2023/09/23 00:45:34;;;;;;;4.13;2.88;;;;;;;1.98;100.00;98706.25;4933950;29;20047;-69
2023/09/23 00:48:01;;;;;;;10.10;3.17;;;;;;;2.29;100.00;98747.16;4934010;29;20131;-69
2023/09/23 00:50:29;;;;;;;8.60;2.90;;;;;;;2.72;100.00;98808.97;4933033;29;20071;-69
2023/09/23 00:52:56;;;;;;;5.97;2.88;;;;;;;2.98;100.00;98848.66;4933467;29;20059;-68
2023/09/23 00:55:26;;;;;;;5.70;3.10;;;;;;;3.09;100.00;98864.28;4933638;29;20059;-69
2023/09/23 00:57:53;;;;;;;5.80;2.85;;;;;;;3.53;100.00;98924.31;4933591;29;20500;-69
2023/09/23 01:00:25;;;;;;;5.63;2.78;;;;;;;3.63;100.00;98943.56;4933201;29;20143;-69
2023/09/23 01:02:55;;;;;;;4.97;2.78;;;;;;;3.65;100.00;98940.75;4933649;29;20096;-71
2023/09/23 01:09:10;;;;;;;7.68;3.05;;;;;;;3.97;100.00;99001.09;4931980;29;20168;-68
2023/09/23 01:11:37;;;;;;;8.77;2.75;;;;;;;3.94;100.00;98998.75;4932202;29;20484;-68
2023/09/23 01:14:05;;;;;;;3.30;2.50;;;;;;;4.05;100.00;99022.34;4931796;29;20054;-68
2023/09/23 01:16:32;;;;;;;8.18;3.22;;;;;;;3.98;100.00;99010.69;4931747;29;20062;-69
2023/09/23 01:19:00;;;;;;;7.63;3.28;;;;;;;3.95;100.00;99016.31;4940809;28;20436;-72
2023/09/23 01:21:27;;;;;;;5.32;2.63;;;;;;;3.93;100.00;99018.28;4950066;28;20047;-71
2023/09/23 01:23:53;;;;;;;6.90;3.33;;;;;;;3.93;100.00;99026.25;4951479;28;20047;-67
2023/09/23 01:26:20;;;;;;;5.03;2.70;;;;;;;3.96;100.00;99025.94;4951453;28;20043;-68
2023/09/23 01:28:49;;;;;;;6.47;3.20;;;;;;;3.96;100.00;99028.59;4950755;28;20389;-69
2023/09/23 01:31:21;;;;;;;6.60;2.80;;;;;;;3.92;100.00;99037.84;4949773;28;20047;-69
2023/09/23 01:33:48;;;;;;;;;;;;;;;3.90;100.00;99039.81;4951389;28;20138;-68
2023/09/23 01:36:15;;;;;;;9.50;3.38;;;;;;;3.89;100.00;99049.59;4951156;28;19922;-69
2023/09/23 01:38:41;;;;;;;4.45;2.88;;;;;;;3.86;100.00;99049.91;4950710;28;20047;-69
2023/09/23 01:41:08;;;;;;;4.72;2.58;;;;;;;3.83;100.00;99051.09;4950436;28;20044;-69
2023/09/23 01:43:35;;;;;;;4.38;2.47;;;;;;;4.11;100.00;99096.00;4950192;28;20098;-68
2023/09/23 01:46:03;;;;;;;7.65;2.90;;;;;;;4.59;100.00;99168.94;4950574;28;20066;-69
2023/09/23 01:48:31;;;;;;;10.15;2.92;;;;;;;4.76;100.00;99202.56;4950831;28;20113;-69
2023/09/23 01:51:00;;;;;;;4.35;2.45;;;;;;;4.94;100.00;99222.88;4949714;28;20043;-68
2023/09/23 01:53:28;;;;;;;5.07;2.40;;;;;;;4.95;100.00;99227.19;4950678;28;20043;-68
2023/09/23 01:55:55;;;;;;;6.50;2.80;;;;;;;4.98;100.00;99237.50;4950697;28;20414;-68
2023/09/23 01:58:22;;;;;;;3.42;2.05;;;;;;;4.93;100.00;99240.63;4951403;28;20051;-68
2023/09/23 02:00:54;;;;;;;3.70;2.47;;;;;;;4.97;100.00;99241.13;4951218;28;20049;-69
2023/09/23 02:03:22;;;;;;;3.65;2.38;;;;;;;4.96;100.00;99234.16;4950717;28;20051;-68
2023/09/23 02:05:49;;;;;;;5.05;2.60;;;;;;;4.86;100.00;99234.28;4950123;29;20416;-68
2023/09/23 02:08:16;;;;;;;6.32;2.60;;;;;;;4.86;100.00;99246.75;4950471;28;20035;-70
2023/09/23 02:10:44;;;;;;;3.50;2.10;;;;;;;4.86;100.00;99250.22;4950269;28;20047;-69
2023/09/23 02:13:11;;;;;;;4.57;2.30;;;;;;;4.85;100.00;99256.53;4952871;28;20050;-68
2023/09/23 02:15:38;;;;;;;4.82;2.25;;;;;;;4.83;100.00;99261.16;4954458;28;20047;-70
2023/09/23 02:18:06;;;;;;;5.30;2.40;;;;;;;4.92;100.00;99260.22;4951681;28;20122;-69
2023/09/23 02:20:34;;;;;;;6.07;2.33;;;;;;;5.00;100.00;99278.84;4934013;29;20527;-69
2023/09/23 02:23:02;;;;;;;6.53;2.38;;;;;;;5.08;100.00;99288.72;4934775;29;20076;-69
2023/09/23 02:25:32;;;;;;;3.67;2.38;;;;;;;5.03;100.00;99299.81;4934605;29;20052;-69
2023/09/23 02:27:59;;;;;;;5.82;2.55;;;;;;;5.13;100.00;99315.63;4934845;29;20102;-68
2023/09/23 02:30:25;;;;;;;7.00;2.45;;;;;;;5.03;100.00;99293.66;4934405;29;20055;-68
2023/09/23 02:32:58;;;;;;;4.13;2.15;;;;;;;4.92;100.00;99308.06;4934571;29;20054;-69
2023/09/23 02:35:25;;;;;;;6.75;2.33;;;;;;;4.80;100.00;99299.53;4934277;29;20048;-68
2023/09/23 02:37:53;;;;;;;5.35;2.33;;;;;;;4.80;100.00;99293.41;4935160;29;20099;-70
2023/09/23 02:40:20;;;;;;;5.20;2.00;;;;;;;4.78;100.00;99292.72;4933538;29;20461;-69
2023/09/23 02:42:51;;;;;;;5.95;2.35;;;;;;;4.74;100.00;99300.16;4935118;29;20075;-70
2023/09/23 02:45:20;;;;;;;4.10;2.30;;;;;;;4.66;100.00;99300.13;4933188;29;20052;-69
2023/09/23 02:47:47;;;;;;;7.45;2.40;;;;;;;4.71;100.00;99305.78;4934774;29;20044;-69
2023/09/23 02:50:15;;;;;;;4.90;2.25;;;;;;;4.76;100.00;99311.47;4934135;29;20408;-68
2023/09/23 02:52:44;;;;;;;7.13;2.55;;;;;;;4.87;100.00;99338.75;4934245;29;20061;-68
2023/09/23 02:55:14;;;;;;;5.70;2.25;;;;;;;4.85;100.00;99343.41;4934097;29;20062;-68
2023/09/23 02:57:48;;;;;;;5.80;1.92;;;;;;;4.85;100.00;99344.22;4934393;29;20059;-69
2023/09/23 03:00:16;;;;;;;3.95;2.03;;;;;;;4.84;100.00;99349.72;4934412;29;20047;-63
2023/09/23 03:02:53;;;;;;;5.18;2.40;;;;;;;4.90;100.00;99368.53;4939234;29;20079;-69
2023/09/23 03:05:27;;;;;;;4.13;1.80;;;;;;;4.93;100.00;99384.13;4935055;29;20508;-67
2023/09/23 03:07:57;;;;;;;5.60;1.75;;;;;;;4.95;100.00;99391.97;4934273;29;20122;-68
2023/09/23 03:10:32;;;;;;;3.40;1.90;;;;;;;4.82;100.00;99374.59;4933908;29;20044;-69
2023/09/23 03:13:04;;;;;;;3.17;1.70;;;;;;;4.62;100.00;99345.72;4934545;29;20047;-68
2023/09/23 03:15:44;;;;;;;4.63;1.83;;;;;;;4.52;100.00;99332.53;4934378;29;20134;-68
2023/09/23 03:18:14;;;;;;;2.85;1.70;;;;;;;4.55;100.00;99335.72;4937134;28;20453;-69
2023/09/23 03:20:42;;;;;;;4.05;1.88;;;;;;;4.52;100.00;99335.19;4953409;28;20512;-69
2023/09/23 03:23:12;;;;;;;4.85;2.00;;;;;;;4.40;100.00;99310.72;4952625;28;20097;-69
2023/09/23 03:25:46;;;;;;;5.60;2.25;;;;;;;3.90;100.00;99244.09;4952999;28;20118;-68
2023/09/23 03:28:16;;;;;;;5.22;1.83;;;;;;;3.94;100.00;99250.81;4953361;28;20397;-68
2023/09/23 03:30:47;;;;;;;3.95;1.83;;;;;;;3.91;100.00;99241.31;4953890;28;20047;-69
2023/09/23 03:33:18;;;;;;;3.78;1.80;;;;;;;3.88;100.00;99238.97;4953370;28;20055;-69
2023/09/23 03:35:45;;;;;;;6.22;1.90;;;;;;;3.79;100.00;99230.13;4953242;28;20404;-69
2023/09/23 03:38:13;;;;;;;3.22;1.90;;;;;;;3.79;100.00;99240.75;4953302;28;20106;-68
2023/09/23 03:40:39;;;;;;;3.53;1.60;;;;;;;3.78;100.00;99236.41;4953181;28;20051;-68
2023/09/23 03:43:06;;;;;;;5.88;1.63;;;;;;;3.68;100.00;99226.84;4953087;28;20134;-68
2023/09/23 03:45:35;;;;;;;4.00;2.05;;;;;;;3.66;100.00;99223.53;4953010;28;20047;-67
2023/09/23 03:48:02;;;;;;;2.97;2.15;;;;;;;3.67;100.00;99226.03;4953199;28;20122;-68
2023/09/23 03:50:32;;;;;;;3.13;2.08;;;;;;;3.69;100.00;99237.34;4952928;28;20054;-67
2023/09/23 03:52:59;;;;;;;10.13;2.20;;;;;;;3.76;100.00;99235.72;4953476;28;20047;-68
2023/09/23 03:55:26;;;;;;;4.13;1.23;;;;;;;3.81;100.00;99253.84;4952785;28;20053;-69
2023/09/23 03:57:54;;;;;;;3.42;1.60;;;;;;;3.76;100.00;99254.31;4953557;28;20055;-69
2023/09/23 04:00:26;;;;;;;3.95;1.45;;;;;;;3.95;100.00;99266.56;4953323;28;20043;-69
2023/09/23 04:02:54;;;;;;;4.82;1.70;;;;;;;4.31;100.00;99328.41;4953317;28;20125;-70
2023/09/23 04:05:23;;;;;;;5.95;1.65;;;;;;;4.28;100.00;99334.03;4953057;28;20047;-69
2023/09/23 04:07:52;;;;;;;;;;;;;;;4.34;100.00;99333.38;4953538;28;20047;-68
2023/09/23 04:10:23;;;;;;;4.40;1.90;;;;;;;4.24;100.00;99335.31;4952603;28;19994;-69
2023/09/23 04:12:51;;;;;;;4.75;1.77;;;;;;;4.26;100.00;99338.63;4952876;28;20049;-68
2023/09/23 04:15:21;;;;;;;4.40;1.77;;;;;;;4.18;100.00;99335.94;4952242;28;20047;-68
2023/09/23 04:17:48;;;;;;;3.15;1.67;;;;;;;4.18;100.00;99335.94;4952680;28;20043;-70
2023/09/23 04:20:15;;;;;;;4.40;1.50;;;;;;;4.15;100.00;99330.09;4933362;28;20043;-68
2023/09/23 04:22:42;;;;;;;2.88;1.45;;;;;;;4.19;100.00;99342.06;4933020;29;20584;-69
2023/09/23 04:25:10;;;;;;;3.78;1.60;;;;;;;4.15;100.00;99341.53;4932926;29;20453;-68
2023/09/23 04:27:37;;;;;;;5.65;1.50;;;;;;;4.12;100.00;99344.50;4933391;29;20055;-69
2023/09/23 04:30:09;;;;;;;3.30;1.23;;;;;;;4.13;100.00;99347.97;4933231;29;20050;-68
2023/09/23 04:32:36;;;;;;;;;;;;;;;4.08;100.00;99351.09;4933924;29;20078;-68
2023/09/23 04:35:03;;;;;;;3.33;1.50;;;;;;;4.02;100.00;99352.53;4932671;29;19954;-69
2023/09/23 04:37:36;;;;;;;3.30;1.20;;;;;;;4.09;100.00;99363.38;4933344;29;20672;-68
2023/09/23 04:40:12;;;;;;;3.05;1.48;;;;;;;4.12;100.00;99370.19;4933262;29;20051;-68
2023/09/23 04:42:43;;;;;;;2.67;1.48;;;;;;;4.09;100.00;99373.97;4933000;29;20051;-68
2023/09/23 04:45:11;;;;;;;3.47;1.60;;;;;;;3.93;100.00;99368.50;4933120;29;20104;-68
2023/09/23 04:47:38;;;;;;;2.75;1.55;;;;;;;3.92;100.00;99366.84;4933040;29;20542;-68
2023/09/23 04:50:08;;;;;;;2.90;1.40;;;;;;;3.80;100.00;99358.28;4932667;29;20040;-68
2023/09/23 04:52:35;;;;;;;4.70;1.30;;;;;;;3.81;100.00;99363.44;4932301;29;20135;-69
2023/09/23 04:55:02;;;;;;;6.20;1.55;;;;;;;3.82;100.00;99366.91;4932851;29;20048;-70
2023/09/23 04:57:29;;;;;;;3.38;1.70;;;;;;;3.90;100.00;99371.47;4932952;29;20130;-70
2023/09/23 04:59:57;;;;;;;20.25;10.25;;;;;;;3.96;100.00;99400.06;4932952;29;20111;-67
2023/09/23 05:02:25;;;;;;;4.57;2.50;;;;;;;3.89;100.00;99409.59;4932679;29;20047;-68
2023/09/23 05:04:53;;;;;;;6.15;2.70;;;;;;;3.81;100.00;99413.00;4931844;29;20518;-69
2023/09/23 05:07:21;;;;;;;3.65;1.48;;;;;;;3.81;100.00;99403.22;4932571;29;20048;-69
2023/09/23 05:09:49;;;;;;;5.25;1.35;;;;;;;3.82;100.00;99404.06;4932822;29;20412;-68
2023/09/23 05:12:16;;;;;;;5.40;1.10;;;;;;;3.83;100.00;99408.41;4932212;29;20047;-68
2023/09/23 05:14:43;;;;;;;3.30;1.20;;;;;;;3.69;100.00;99409.72;4932231;29;20488;-70
2023/09/23 05:17:14;;;;;;;5.65;1.60;;;;;;;3.70;100.00;99418.50;4932932;29;20047;-69
2023/09/23 05:19:42;;;;;;;3.50;1.48;;;;;;;3.60;100.00;99416.75;4946550;28;20059;-69
2023/09/23 05:22:10;;;;;;;2.80;1.52;;;;;;;3.60;100.00;99415.91;4951238;28;20126;-69
2023/09/23 05:24:45;;;;;;;3.33;1.40;;;;;;;3.60;100.00;99416.75;4951982;28;20051;-68
2023/09/23 05:27:11;;;;;;;5.25;1.58;;;;;;;3.66;100.00;99420.63;4951711;28;20082;-69
2023/09/23 05:29:38;;;;;;;1.98;1.15;;;;;;;3.67;100.00;99424.94;4951822;28;20047;-69
2023/09/23 05:32:05;;;;;;;1.45;1.00;;;;;;;3.72;100.00;99424.50;4952051;28;20047;-68
2023/09/23 05:34:31;;;;;;;5.15;1.45;;;;;;;3.76;100.00;99447.06;4951961;28;20050;-69
2023/09/23 05:36:58;;;;;;;3.63;1.15;;;;;;;3.91;100.00;99469.50;4951142;28;20047;-69
2023/09/23 05:39:25;;;;;;;4.90;1.13;;;;;;;3.95;100.00;99486.78;4951398;28;20070;-67
2023/09/23 05:41:53;;;;;;;5.13;1.38;;;;;;;3.90;100.00;99491.72;4952314;28;20051;-68
2023/09/23 05:44:20;;;;;;;3.38;1.67;;;;;;;3.88;100.00;99500.78;4952335;28;20127;-68
2023/09/23 05:46:48;;;;;;;2.15;1.38;;;;;;;3.85;100.00;99510.72;4951573;28;20053;-68
2023/09/23 05:49:15;;;;;;;3.03;1.38;;;;;;;3.86;100.00;99508.88;4955324;28;20389;-68
2023/09/23 05:51:43;;;;;;;4.20;1.70;;;;;;;3.77;100.00;99523.03;4955275;28;20047;-69
2023/09/23 05:54:09;;;;;;;3.28;1.65;;;;;;;3.83;100.00;99522.47;4955208;28;20492;-70
2023/09/23 05:56:36;;;;;;;3.15;1.10;;;;;;;3.83;100.00;99528.59;4955512;28;20420;-69
2023/09/23 05:59:03;;;;;;;5.82;1.50;;;;;;;3.93;100.00;99543.63;4955010;28;20051;-69
2023/09/23 06:01:29;;;;;;;2.13;1.15;;;;;;;3.93;100.00;99546.28;4955505;28;20146;-69
2023/09/23 06:03:56;;;;;;;2.63;1.40;;;;;;;3.94;100.00;99534.72;4955247;28;20134;-68
2023/09/23 06:06:23;;;;;;;5.07;1.50;;;;;;;4.04;100.00;99554.91;4955302;28;20071;-68
2023/09/23 06:08:50;;;;;;;3.00;1.45;;;;;;;4.07;100.00;99559.94;4955443;28;20051;-68
2023/09/23 06:11:17;;;;;;;2.80;0.95;;;;;;;4.30;100.00;99580.75;4955087;28;20055;-70
2023/09/23 06:13:44;;;;;;;2.75;1.20;;;;;;;4.56;100.00;99618.97;4955364;28;20066;-70
2023/09/23 06:16:13;;;;;;;5.35;1.15;;;;;;;4.68;100.00;99630.19;4954963;28;20057;-68
2023/09/23 06:18:39;;;;;;;2.40;1.20;;;;;;;4.73;100.00;99627.13;4948597;28;20072;-69
2023/09/23 06:21:06;;;;;;;5.18;1.48;;;;;;;4.83;100.00;99638.50;4935429;29;20453;-68
2023/09/23 06:23:33;;;;;;;4.15;1.17;;;;;;;5.11;100.00;99668.56;4935789;29;20049;-69
2023/09/23 06:26:05;;;;;;;3.65;1.40;;;;;;;5.38;100.00;99702.19;4935688;28;20052;-68
2023/09/23 06:28:34;;;;;;;5.10;1.33;;;;;;;5.55;100.00;99711.19;4935783;29;20489;-69
2023/09/23 06:31:06;;;;;;;4.60;1.52;;;;;;;5.87;100.00;99744.38;4935726;29;20103;-69
2023/09/23 06:33:33;;;;;;;3.67;0.88;;;;;;;6.28;100.00;99800.66;4935561;29;20051;-68
2023/09/23 06:36:04;;;;;;;4.50;1.60;;;;;;;6.60;100.00;99838.22;4934995;29;20048;-70
2023/09/23 06:38:32;;;;;;;1.92;1.20;;;;;;;7.14;100.00;99891.34;4933059;28;20055;-71
2023/09/23 06:41:00;;;;;;;4.60;1.30;;;;;;;7.59;100.00;99927.59;4933708;29;20350;-70
2023/09/23 06:43:30;;;;;;;1.73;1.00;;;;;;;8.43;100.00;100054.97;4929678;29;20497;-70
2023/09/23 06:45:59;;;;;;;5.05;1.88;;;;;;;8.99;100.00;100123.00;4917702;29;20058;-70
2023/09/23 06:48:27;;;;;;;3.45;0.88;;;;;;;9.48;100.00;100179.28;4924462;29;20126;-69
2023/09/23 06:51:09;;;;;;;3.17;1.05;;;;;;;10.20;100.00;100232.16;4937564;29;20415;-70
2023/09/23 06:53:36;;;;;;;2.25;1.10;;;;;;;10.80;100.00;100290.75;4933742;29;20568;-73
2023/09/23 06:56:04;;;;;;;2.72;1.30;;;;;;;11.58;100.00;100338.22;4933249;29;20051;-70
2023/09/23 06:58:31;;;;;;;3.65;1.15;;;;;;;11.92;100.00;100353.19;4934195;28;20054;-71
2023/09/23 07:00:58;;;;;;;4.20;0.90;;;;;;;12.38;100.00;100366.63;4937279;28;20070;-71
2023/09/23 07:03:40;;;;;;;2.17;0.90;;;;;;;12.80;100.00;100370.66;4935478;28;20100;-72
2023/09/23 07:06:20;;;;;;;2.92;1.05;;;;;;;13.17;100.00;100377.00;4933888;29;20052;-70
2023/09/23 07:09:13;;;;;;;2.45;0.90;;;;;;;13.63;100.00;100392.94;4931730;29;20527;-70
2023/09/23 07:11:40;;;;;;;3.13;1.55;;;;;;;13.80;100.00;100400.69;4923665;29;20044;-71
2023/09/23 07:14:07;;;;;;;1.73;0.90;;;;;;;13.82;100.00;100401.31;4931575;29;20058;-70
2023/09/23 07:16:34;;;;;;;7.25;3.30;;;;;;;14.23;100.00;100403.44;4932981;29;20138;-71
2023/09/23 07:19:10;;;;;;;4.60;1.98;;;;;;;14.41;100.00;100405.69;4926063;29;20071;-70
2023/09/23 07:21:42;;;;;;;3.22;1.05;;;;;;;15.11;100.00;100428.28;4908014;29;20048;-71
2023/09/23 07:24:09;;;;;;;2.63;0.77;;;;;;;15.59;100.00;100422.97;4903210;29;20523;-71
2023/09/23 07:26:39;;;;;;;2.05;0.90;;;;;;;15.58;100.00;100439.41;4913765;29;20096;-73
2023/09/23 07:29:09;;;;;;;3.20;1.05;;;;;;;16.13;100.00;100435.72;4921379;29;20055;-71
2023/09/23 07:31:37;;;;;;;2.20;1.00;;;;;;;16.06;100.00;100431.31;4930112;29;20400;-73
2023/09/23 07:34:05;;;;;;;2.92;0.75;;;;;;;16.22;100.00;100422.81;4926921;29;20044;-71
2023/09/23 07:36:43;;;;;;;3.38;0.90;;;;;;;16.33;100.00;100430.34;4926377;29;20389;-72
2023/09/23 07:39:18;;;;;;;3.63;1.00;;;;;;;16.63;96.42;100435.41;4929710;29;20143;-72
2023/09/23 07:41:45;;;;;;;2.67;1.50;;;;;;;16.74;94.54;100442.91;4926115;29;20050;-71
2023/09/23 07:44:12;;;;;;;2.53;0.90;;;;;;;16.90;93.94;100431.66;4929657;29;20079;-69
2023/09/23 07:46:39;;;;;;;6.25;1.30;;;;;;;16.94;92.78;100437.50;4931224;29;20413;-70
2023/09/23 07:49:08;;;;;;;2.22;0.98;;;;;;;17.17;87.17;100433.53;4929352;29;20066;-70
2023/09/23 07:51:42;;;;;;;1.15;0.75;;;;;;;17.14;83.37;100438.31;4916108;29;20504;-70
2023/09/23 07:55:10;;;;;;;2.60;0.93;;;;;;;17.33;82.16;100446.63;4909108;29;20522;-71
2023/09/23 07:57:38;;;;;;;1.23;0.65;;;;;;;17.34;80.88;100449.16;4891220;29;20048;-69
2023/09/23 08:00:08;;;;;;;3.55;0.90;;;;;;;17.32;76.47;100444.97;4911032;29;20150;-70
2023/09/23 08:02:36;;;;;;;1.60;0.77;;;;;;;17.39;77.90;100453.13;4910783;29;20052;-72
2023/09/23 08:05:04;;;;;;;1.60;0.68;;;;;;;17.11;77.79;100454.16;4911974;29;20299;-71
2023/09/23 08:07:32;;;;;;;1.63;0.82;;;;;;;17.50;76.81;100456.00;4912136;29;20634;-71
2023/09/23 08:09:59;;;;;;;1.42;0.90;;;;;;;18.03;73.30;100458.53;4909654;29;20048;-71
2023/09/23 08:12:25;;;;;;;2.05;0.98;;;;;;;;;;4911541;29;20099;-70
2023/09/23 08:14:52;;;;;;;3.58;0.88;;;;;;;17.04;76.76;100454.16;4916176;29;20464;-62
2023/09/23 08:17:19;;;;;;;3.90;1.33;;;;;;;16.44;81.34;100464.09;4916593;29;20050;-62
2023/09/23 08:19:45;;;;;;;3.75;0.70;;;;;;;16.82;84.63;100466.28;4912715;29;20051;-66
2023/09/23 08:22:12;;;;;;;4.55;0.90;;;;;;;16.99;81.94;100466.66;4873649;29;1117106;-67
2023/09/23 08:24:39;;;;;;;1.95;0.88;;;;;;;16.64;84.62;100465.00;4914976;29;20111;-66
2023/09/23 08:27:06;;;;;;;1.83;1.27;;;;;;;17.03;81.22;100482.31;4932209;29;20110;-64
2023/09/23 08:29:32;;;;;;;1.42;0.80;;;;;;;17.39;73.81;100486.47;4933633;29;20047;-65
2023/09/23 08:31:59;;;;;;;1.52;0.55;;;;;;;17.26;76.05;100489.19;4932886;29;20420;-65
2023/09/23 08:34:27;;;;;;;2.38;1.13;;;;;;;17.15;76.82;100498.78;4932314;29;20067;-65
2023/09/23 08:36:53;;;;;;;2.45;1.10;;;;;;;16.38;79.98;100508.22;4931871;29;20071;-63
2023/09/23 08:39:20;;;;;;;1.58;1.20;;;;;;;15.99;87.23;100512.47;4933504;29;20507;-68
2023/09/23 08:41:52;;;;;;;1.40;0.88;;;;;;;15.86;87.83;100515.94;4933158;28;20052;-70
2023/09/23 08:44:22;;;;;;;1.88;1.23;;;;;;;16.05;85.10;100514.34;4931834;29;20131;-69
2023/09/23 08:46:51;;;;;;;1.45;0.77;;;;;;;15.71;89.12;100513.34;4931647;29;20118;-69
2023/09/23 08:49:21;;;;;;;3.33;0.95;;;;;;;15.65;93.52;100524.13;4932663;29;20043;-69
2023/09/23 08:51:53;;;;;;;4.03;1.08;;;;;;;15.34;90.13;100540.72;4932743;29;20050;-64
2023/09/23 08:54:22;;;;;;;1.77;0.98;;;;;;;15.38;89.67;100559.06;4932461;29;20118;-69
2023/09/23 08:56:50;;;;;;;3.40;0.80;;;;;;;15.27;93.70;100558.75;4932934;29;20127;-69
2023/09/23 08:59:16;;;;;;;4.00;0.90;;;;;;;15.79;86.71;100554.81;4931840;29;20092;-69
2023/09/23 09:01:44;;;;;;;4.78;0.93;;;;;;;16.40;82.58;100557.59;4931843;29;20048;-69
2023/09/23 09:04:17;;;;;;;1.38;0.80;;;;;;;17.77;69.38;100553.59;4930496;29;20525;-70
2023/09/23 09:06:50;;;;;;;1.65;0.90;;;;;;;18.77;62.63;100557.63;4932148;29;20114;-68
2023/09/23 09:09:18;;;;;;;2.50;0.68;;;;;;;19.28;57.05;100561.28;4932216;29;20484;-69
2023/09/23 09:11:49;;;;;;;2.05;0.93;;;;;;;19.84;54.87;100568.53;4932008;29;20055;-70
2023/09/23 09:14:16;;;;;;;3.45;0.80;;;;;;;20.51;51.41;100573.22;4931752;28;20063;-68
2023/09/23 09:16:43;;;;;;;1.42;1.08;;;;;;;21.08;49.89;100579.13;4931786;29;20110;-69
2023/09/23 09:19:10;;;;;;;1.25;0.95;;;;;;;21.32;47.43;100574.56;4941107;28;20510;-70
2023/09/23 09:21:36;;;;;;;2.20;1.20;;;;;;;19.99;49.13;100583.66;4951763;28;20542;-68
2023/09/23 09:24:04;;;;;;;1.90;0.88;;;;;;;19.81;51.74;100585.31;4954901;28;20451;-69
2023/09/23 09:26:31;;;;;;;1.60;0.90;;;;;;;19.02;53.74;100587.59;4961999;28;20709;-63
2023/09/23 09:28:58;;;;;;;4.15;0.98;;;;;;;18.28;56.64;100594.44;4962679;28;20047;-63
2023/09/23 09:31:33;;;;;;;1.58;1.00;;;;;;;16.87;61.29;100597.34;4961932;28;20046;-63
2023/09/23 09:34:09;;;;;;;1.65;1.20;;;;;;;16.34;68.24;100607.16;4961483;28;20049;-63
2023/09/23 09:36:38;;;;;;;3.38;0.80;;;;;;;16.49;71.77;100597.00;4963652;28;20043;-63
2023/09/23 09:39:11;;;;;;;1.15;0.70;;;;;;;18.38;63.52;100591.25;4961859;28;20130;-63
2023/09/23 09:41:53;;;;;;;2.20;1.13;;;;;;;18.56;58.96;100596.00;4962892;28;20043;-63
2023/09/23 09:44:23;;;;;;;3.35;1.00;;;;;;;18.96;59.46;100595.78;4962561;28;20047;-63
2023/09/23 09:46:53;;;;;;;2.22;1.10;;;;;;;19.47;55.78;100598.34;4962800;28;20503;-63
2023/09/23 09:49:21;;;;;;;0.90;0.68;;;;;;;18.24;57.72;100589.66;4954562;28;20495;-68
2023/09/23 09:51:49;;;;;;;3.22;1.00;;;;;;;17.84;61.03;100590.53;4954896;28;20054;-69
2023/09/23 09:54:25;;;;;;;1.50;1.17;;;;;;;17.91;62.08;100593.25;4951801;28;20099;-69
2023/09/23 09:56:53;;;;;;;4.28;0.93;;;;;;;17.73;62.06;100596.63;4954418;28;20505;-68
2023/09/23 09:59:37;;;;;;;2.20;1.17;;;;;;;16.97;67.19;100610.50;4954740;28;20079;-68
2023/09/23 10:02:05;;;;;;;1.35;1.23;;;;;;;16.29;74.75;100610.44;4954360;28;20047;-68
2023/09/23 10:04:37;;;;;;;2.47;1.40;;;;;;;15.94;80.98;100615.84;4955005;28;20460;-69
2023/09/23 10:07:07;;;;;;;1.98;1.30;;;;;;;15.21;90.66;100612.53;4955040;28;20043;-68
2023/09/23 10:09:38;;;;;;;2.92;1.50;;;;;;;15.03;98.29;100628.38;4954107;28;20078;-68
2023/09/23 10:12:07;;;;;;;3.03;1.37;;;;;;;15.66;99.72;100618.56;4959656;28;20054;-63
2023/09/23 10:14:33;;;;;;;4.53;2.17;;;;;;;17.91;79.75;100617.66;4963126;28;20297;-63
2023/09/23 10:17:03;;;;;;;2.55;1.20;;;;;;;19.87;65.22;100614.34;4963039;28;20047;-64
2023/09/23 10:19:32;;;;;;;2.42;1.35;;;;;;;20.82;56.56;100613.88;4949019;28;20057;-64
2023/09/23 10:22:08;;;;;;;2.88;1.67;;;;;;;21.41;53.21;100610.53;4941381;29;20571;-64
2023/09/23 10:24:35;;;;;;;3.42;1.30;;;;;;;20.57;54.08;100619.47;4941349;29;20048;-64
2023/09/23 10:27:06;;;;;;;3.17;1.38;;;;;;;21.49;53.24;100613.72;4943366;29;20067;-65
2023/09/23 10:29:49;;;;;;;2.42;1.30;;;;;;;22.16;49.67;100609.84;4942575;29;20134;-63
2023/09/23 10:32:17;;;;;;;1.52;1.20;;;;;;;22.60;46.34;100613.78;4941995;29;20058;-63
2023/09/23 10:34:55;;;;;;;2.38;1.27;;;;;;;23.01;45.46;100614.59;4941259;29;20139;-63
2023/09/23 10:37:29;;;;;;;2.08;1.40;;;;;;;22.28;45.65;100606.00;4942427;29;20055;-63
2023/09/23 10:40:14;;;;;;;2.20;1.40;;;;;;;21.06;48.97;100619.44;4934780;29;20412;-65
2023/09/23 10:42:41;;;;;;;1.67;1.13;;;;;;;20.73;49.75;100622.59;4934699;29;20044;-65
2023/09/23 10:45:09;;;;;;;3.60;1.50;;;;;;;19.48;52.65;100619.06;4934262;29;20051;-64
2023/09/23 10:47:36;;;;;;;3.42;1.40;;;;;;;18.43;56.81;100624.03;4935357;29;20114;-64
2023/09/23 10:50:08;;;;;;;2.17;1.98;;;;;;;18.81;58.90;100625.97;4934500;29;20051;-65
2023/09/23 10:52:36;;;;;;;4.10;1.88;;;;;;;18.88;60.47;100626.75;4934479;29;20059;-66
2023/09/23 10:55:04;;;;;;;3.38;1.00;;;;;;;18.85;61.05;100626.34;4934143;29;20051;-69
2023/09/23 10:57:31;;;;;;;3.38;1.20;;;;;;;19.33;59.37;100631.31;4934677;29;20048;-70
2023/09/23 10:59:58;;;;;;;1.15;0.95;;;;;;;18.89;58.11;100624.88;4934384;29;20106;-69
2023/09/23 11:02:25;;;;;;;6.93;1.42;;;;;;;19.58;54.50;100620.44;4934679;29;20098;-69
2023/09/23 11:04:55;;;;;;;2.70;1.85;;;;;;;19.35;53.70;100629.22;4934423;29;20095;-70
2023/09/23 11:07:24;;;;;;;5.05;1.20;;;;;;;19.19;54.00;100633.28;4933244;29;20054;-68
2023/09/23 11:09:53;;;;;;;2.78;0.90;;;;;;;19.23;52.86;100635.34;4934309;29;20452;-72
2023/09/23 11:12:20;;;;;;;3.25;0.85;;;;;;;18.79;53.96;100625.31;4933481;29;20055;-70
2023/09/23 11:14:48;;;;;;;3.92;1.05;;;;;;;19.12;53.66;100629.78;4934003;28;20420;-69
2023/09/23 11:17:25;;;;;;;3.33;1.00;;;;;;;18.77;53.87;100620.13;4939982;29;20103;-64
2023/09/23 11:20:01;;;;;;;3.05;1.10;;;;;;;18.05;57.00;100622.03;4957008;28;20047;-63
2023/09/23 11:22:29;;;;;;;2.88;1.02;;;;;;;18.07;56.63;100629.97;4959712;28;20739;-63
2023/09/23 11:24:57;;;;;;;1.42;0.80;;;;;;;18.43;55.49;100643.03;4960249;28;20071;-63
2023/09/23 11:27:25;;;;;;;3.10;1.00;;;;;;;17.79;56.92;100632.94;4961119;28;20051;-63
2023/09/23 11:29:54;;;;;;;3.17;1.10;;;;;;;17.69;58.78;100635.22;4962583;28;20043;-62
2023/09/23 11:32:24;;;;;;;2.42;0.90;;;;;;;17.98;59.46;100640.19;4960904;28;20065;-64
2023/09/23 11:34:54;;;;;;;2.42;0.90;;;;;;;17.95;59.71;100640.63;4961285;28;20427;-63
2023/09/23 11:37:22;;;;;;;1.25;0.98;;;;;;;17.37;62.70;100645.84;4961848;28;20074;-63
2023/09/23 11:39:49;;;;;;;1.00;0.88;;;;;;;17.55;62.44;100648.78;4961377;28;20087;-62
2023/09/23 11:42:16;;;;;;;1.70;0.77;;;;;;;17.67;61.96;100642.72;4960464;28;20095;-65